Aérodrome :
LOGIN :

S'inscrire | Disclaimer

   EN    FR    IT 

 










Légende :    VFR   VFR Marginal   IFR   IFR Intensif   IFR Très Intensif
Visi : 
Plafond : 
>= 8 km
>= 3000ft
5 à 8 km
1000 à 3000 ft
1500m à 5 km
500 à 1000 ft
800 à 1500m
200 à 500 ft
< 800m
< 200 ft
Symboles :   Orages  Brouillard  Fortes neiges  Fortes précipitations  Vent > 20 kt
SIGMETs :   Divers  Orages  Givrage  Turbulence  Onde Orograph.  Cendres Volcan.






- Altitude de l'aérodrome : 309 ft
- Code IATA : FNI


LFTW - Nîmes Garons

DERNIER METAR :
  • 290630Z AUTO 01012KT CAVOK 23/14 Q1015 NOSIG

METARs EXPIRÉS :
  • 290600Z AUTO 36010KT 330V030 CAVOK 22/14 Q1015 NOSIG
  • 290530Z AUTO 36007KT 320V020 CAVOK 21/13 Q1015 NOSIG
  • 290500Z AUTO 36006KT CAVOK 21/13 Q1015 NOSIG
  • 290430Z AUTO 36007KT CAVOK 20/13 Q1015 NOSIG
  • 290400Z AUTO 35006KT CAVOK 20/13 Q1015 NOSIG

TAF TAF LFTW
Valide du 29 à 03h jusqu'au 30 à 03h UTC


290200Z 2903/3003 36010KT CAVOK
BECMG 2911/2913 20010KT
BECMG 2922/2924 VRB05KT
PROB30
TEMPO 3002/3003 FEW090CB BKN120



MET'MAP, la Météo Aéronautique d'un coup d'oeil ! - Copyright ORBIFLY Décembre 2007 - Disclaimer

ORBIFLY MET'MAP TEAM :

Programmation & Développement : Alexandra Zaïnal
Sur une idée originale de : Baudouin d'Aumeries
Assistance à la programmation : Marc-Olivier Méhu
Soutien technique & logistique : Manuel Goepfert

Contact : metmap@orbifly.com




SOURCES & CREDITS :

   NOAA